06OK weather

Albert Lodge Heliport
Grove, Oklahoma, United States

Public forecast

Using degrees Fahrenheit for public forecast. Weather courtesy of forecast.io.

Closest aviation weather report (METAR) to Albert Lodge Heliport

Closest report is Grove Municipal Airport, 6.0 nm (11.2 km) NE. Retrieved 2020/02/24 01:55 UTC (17 minutes ago):

KGMJ 240155Z AUTO 10004KT 5SM -RA BKN015 08/08 A2988 RMK AO2 P0005

Closest aviation forecast (TAF) to Albert Lodge Heliport

Closest forecast is Northwest Arkansas Regional Airport, 29.9 nm (55.3 km) ESE. Retrieved 2020-02-24 00:45 UTC (1 hour ago):

TAF KXNA 232342Z 2400/2424 14009KT 5SM -RA BR OVC008 FM241200 20012KT P6SM OVC015 FM241900 29014G23KT P6SM OVC025